sensor_id;sensor_type;location;lat;lon;timestamp;pressure;altitude;pressure_sealevel;temperature;humidity
40612;BME280;26317;44.894;20.286;2023-09-12T00:00:05;100558.31;;;22.91;64.81
40612;BME280;26317;44.894;20.286;2023-09-12T00:02:39;100558.56;;;22.86;64.55
40612;BME280;26317;44.894;20.286;2023-09-12T00:05:09;100561.72;;;22.88;65.11
40612;BME280;26317;44.894;20.286;2023-09-12T00:07:45;100555.84;;;22.86;65.57
40612;BME280;26317;44.894;20.286;2023-09-12T00:10:16;100556.97;;;22.85;65.48
40612;BME280;26317;44.894;20.286;2023-09-12T00:12:47;100557.69;;;22.82;65.32
40612;BME280;26317;44.894;20.286;2023-09-12T00:15:17;100548.59;;;22.78;65.41
40612;BME280;26317;44.894;20.286;2023-09-12T00:17:48;100552.13;;;22.79;65.08
40612;BME280;26317;44.894;20.286;2023-09-12T00:20:18;100550.53;;;22.78;64.92
40612;BME280;26317;44.894;20.286;2023-09-12T00:22:51;100549.28;;;22.75;65.29
40612;BME280;26317;44.894;20.286;2023-09-12T00:25:23;100558.19;;;22.72;65.30
40612;BME280;26317;44.894;20.286;2023-09-12T00:27:53;100542.50;;;22.69;65.49
40612;BME280;26317;44.894;20.286;2023-09-12T00:30:24;100548.66;;;22.66;65.85
40612;BME280;26317;44.894;20.286;2023-09-12T00:32:54;100544.66;;;22.64;66.33
40612;BME280;26317;44.894;20.286;2023-09-12T00:35:24;100552.44;;;22.62;66.24
40612;BME280;26317;44.894;20.286;2023-09-12T00:37:59;100554.38;;;22.61;66.94
40612;BME280;26317;44.894;20.286;2023-09-12T00:40:29;100553.72;;;22.52;68.01
40612;BME280;26317;44.894;20.286;2023-09-12T00:43:00;100553.97;;;22.47;68.16
40612;BME280;26317;44.894;20.286;2023-09-12T00:45:30;100552.28;;;22.42;68.40
40612;BME280;26317;44.894;20.286;2023-09-12T00:48:07;100522.34;;;22.18;68.36
40612;BME280;26317;44.894;20.286;2023-09-12T00:50:43;100553.16;;;22.31;69.06
40612;BME280;26317;44.894;20.286;2023-09-12T00:53:19;100557.03;;;22.30;68.95
40612;BME280;26317;44.894;20.286;2023-09-12T00:55:55;100554.19;;;22.26;69.06
40612;BME280;26317;44.894;20.286;2023-09-12T00:58:27;100554.91;;;22.23;68.71
40612;BME280;26317;44.894;20.286;2023-09-12T01:00:58;100554.81;;;22.20;69.10
40612;BME280;26317;44.894;20.286;2023-09-12T01:03:30;100551.50;;;22.14;68.87
40612;BME280;26317;44.894;20.286;2023-09-12T01:06:02;100555.75;;;22.12;68.84
40612;BME280;26317;44.894;20.286;2023-09-12T01:08:35;100561.13;;;22.08;68.92
40612;BME280;26317;44.894;20.286;2023-09-12T01:11:07;100558.72;;;22.07;68.44
40612;BME280;26317;44.894;20.286;2023-09-12T01:13:39;100553.84;;;22.00;68.66
40612;BME280;26317;44.894;20.286;2023-09-12T01:16:09;100564.00;;;21.99;68.95
40612;BME280;26317;44.894;20.286;2023-09-12T01:18:39;100564.66;;;21.96;69.12
40612;BME280;26317;44.894;20.286;2023-09-12T01:21:41;100564.44;;;21.89;68.82
40612;BME280;26317;44.894;20.286;2023-09-12T01:24:38;100563.63;;;21.89;69.27
40612;BME280;26317;44.894;20.286;2023-09-12T01:27:23;100558.06;;;21.85;69.55
40612;BME280;26317;44.894;20.286;2023-09-12T01:29:57;100560.69;;;21.82;69.33
40612;BME280;26317;44.894;20.286;2023-09-12T01:32:29;100559.56;;;21.83;69.45
40612;BME280;26317;44.894;20.286;2023-09-12T01:35:00;100561.41;;;21.79;69.18
40612;BME280;26317;44.894;20.286;2023-09-12T01:37:31;100560.13;;;21.76;69.59
40612;BME280;26317;44.894;20.286;2023-09-12T01:40:03;100561.63;;;21.74;69.88
40612;BME280;26317;44.894;20.286;2023-09-12T01:42:40;100559.22;;;21.72;70.17
40612;BME280;26317;44.894;20.286;2023-09-12T01:45:13;100549.25;;;21.64;70.09
40612;BME280;26317;44.894;20.286;2023-09-12T01:47:45;100558.94;;;21.62;70.49
40612;BME280;26317;44.894;20.286;2023-09-12T01:50:19;100555.63;;;21.56;70.88
40612;BME280;26317;44.894;20.286;2023-09-12T01:52:50;100541.41;;;21.50;71.05
40612;BME280;26317;44.894;20.286;2023-09-12T01:55:22;100551.53;;;21.50;71.14
40612;BME280;26317;44.894;20.286;2023-09-12T01:57:56;100535.44;;;21.33;72.18
40612;BME280;26317;44.894;20.286;2023-09-12T02:00:26;100542.69;;;21.41;71.91
40612;BME280;26317;44.894;20.286;2023-09-12T02:02:56;100539.50;;;21.39;72.43
40612;BME280;26317;44.894;20.286;2023-09-12T02:05:27;100543.81;;;21.40;72.29
40612;BME280;26317;44.894;20.286;2023-09-12T02:07:57;100550.78;;;21.37;72.14
40612;BME280;26317;44.894;20.286;2023-09-12T02:10:28;100551.09;;;21.36;72.07
40612;BME280;26317;44.894;20.286;2023-09-12T02:13:01;100543.84;;;21.28;72.93
40612;BME280;26317;44.894;20.286;2023-09-12T02:15:32;100551.22;;;21.27;73.00
40612;BME280;26317;44.894;20.286;2023-09-12T02:18:03;100549.97;;;21.25;73.46
40612;BME280;26317;44.894;20.286;2023-09-12T02:20:38;100551.91;;;21.24;73.44
40612;BME280;26317;44.894;20.286;2023-09-12T02:23:08;100551.56;;;21.26;72.93
40612;BME280;26317;44.894;20.286;2023-09-12T02:25:38;100551.44;;;21.22;73.40
40612;BME280;26317;44.894;20.286;2023-09-12T02:28:14;100543.63;;;21.21;73.63
40612;BME280;26317;44.894;20.286;2023-09-12T02:30:44;100548.94;;;21.17;73.60
40612;BME280;26317;44.894;20.286;2023-09-12T02:33:14;100555.56;;;21.16;73.93
40612;BME280;26317;44.894;20.286;2023-09-12T02:35:45;100554.94;;;21.10;73.88
40612;BME280;26317;44.894;20.286;2023-09-12T02:38:16;100550.19;;;21.07;74.18
40612;BME280;26317;44.894;20.286;2023-09-12T02:40:46;100546.28;;;21.08;73.73
40612;BME280;26317;44.894;20.286;2023-09-12T02:43:19;100539.25;;;20.95;73.54
40612;BME280;26317;44.894;20.286;2023-09-12T02:45:49;100542.75;;;20.96;73.42
40612;BME280;26317;44.894;20.286;2023-09-12T02:48:20;100543.81;;;21.03;73.59
40612;BME280;26317;44.894;20.286;2023-09-12T02:50:50;100546.66;;;20.95;73.93
40612;BME280;26317;44.894;20.286;2023-09-12T02:53:21;100548.69;;;20.98;73.93
40612;BME280;26317;44.894;20.286;2023-09-12T02:55:52;100545.97;;;20.98;73.65
40612;BME280;26317;44.894;20.286;2023-09-12T02:58:25;100543.22;;;20.98;73.73
40612;BME280;26317;44.894;20.286;2023-09-12T03:00:55;100540.84;;;20.96;74.00
40612;BME280;26317;44.894;20.286;2023-09-12T03:03:26;100540.38;;;20.94;73.74
40612;BME280;26317;44.894;20.286;2023-09-12T03:06:00;100538.09;;;20.96;73.78
40612;BME280;26317;44.894;20.286;2023-09-12T03:08:31;100545.03;;;20.94;73.64
40612;BME280;26317;44.894;20.286;2023-09-12T03:11:01;100544.13;;;20.90;73.65
40612;BME280;26317;44.894;20.286;2023-09-12T03:13:40;100553.81;;;20.87;73.72
40612;BME280;26317;44.894;20.286;2023-09-12T03:16:11;100544.56;;;20.80;73.35
40612;BME280;26317;44.894;20.286;2023-09-12T03:18:41;100559.47;;;20.82;73.37
40612;BME280;26317;44.894;20.286;2023-09-12T03:21:12;100554.00;;;20.82;73.24
40612;BME280;26317;44.894;20.286;2023-09-12T03:23:42;100553.09;;;20.78;73.02
40612;BME280;26317;44.894;20.286;2023-09-12T03:26:13;100554.91;;;20.74;73.05
40612;BME280;26317;44.894;20.286;2023-09-12T03:28:51;100550.47;;;20.70;72.60
40612;BME280;26317;44.894;20.286;2023-09-12T03:31:23;100550.00;;;20.67;72.29
40612;BME280;26317;44.894;20.286;2023-09-12T03:33:53;100554.31;;;20.69;72.80
40612;BME280;26317;44.894;20.286;2023-09-12T03:36:23;100558.16;;;20.55;72.95
40612;BME280;26317;44.894;20.286;2023-09-12T03:38:54;100556.69;;;20.58;72.54
40612;BME280;26317;44.894;20.286;2023-09-12T03:41:24;100554.81;;;20.50;72.81
40612;BME280;26317;44.894;20.286;2023-09-12T03:43:59;100557.56;;;20.50;72.98
40612;BME280;26317;44.894;20.286;2023-09-12T03:46:29;100555.06;;;20.45;72.81
40612;BME280;26317;44.894;20.286;2023-09-12T03:49:00;100537.06;;;20.32;73.29
40612;BME280;26317;44.894;20.286;2023-09-12T03:51:31;100563.44;;;20.40;73.42
40612;BME280;26317;44.894;20.286;2023-09-12T03:54:02;100551.34;;;20.29;73.73
40612;BME280;26317;44.894;20.286;2023-09-12T03:56:32;100565.63;;;20.26;73.74
40612;BME280;26317;44.894;20.286;2023-09-12T03:59:05;100564.25;;;20.19;73.70
40612;BME280;26317;44.894;20.286;2023-09-12T04:01:36;100568.78;;;20.15;73.74
40612;BME280;26317;44.894;20.286;2023-09-12T04:04:06;100564.75;;;20.13;74.07
40612;BME280;26317;44.894;20.286;2023-09-12T04:06:37;100570.50;;;19.99;74.53
40612;BME280;26317;44.894;20.286;2023-09-12T04:09:07;100558.53;;;19.92;74.73
40612;BME280;26317;44.894;20.286;2023-09-12T04:11:38;100572.75;;;19.97;74.41
40612;BME280;26317;44.894;20.286;2023-09-12T04:14:16;100576.59;;;19.96;75.13
40612;BME280;26317;44.894;20.286;2023-09-12T04:16:46;100571.16;;;19.96;74.63
40612;BME280;26317;44.894;20.286;2023-09-12T04:19:17;100567.69;;;19.87;74.72
40612;BME280;26317;44.894;20.286;2023-09-12T04:21:47;100565.63;;;19.84;74.44
40612;BME280;26317;44.894;20.286;2023-09-12T04:24:18;100568.38;;;19.84;74.61
40612;BME280;26317;44.894;20.286;2023-09-12T04:26:51;100561.06;;;19.76;75.00
40612;BME280;26317;44.894;20.286;2023-09-12T04:29:28;100556.41;;;19.77;75.28
40612;BME280;26317;44.894;20.286;2023-09-12T04:31:59;100566.50;;;19.76;75.31
40612;BME280;26317;44.894;20.286;2023-09-12T04:34:29;100575.34;;;19.73;75.46
40612;BME280;26317;44.894;20.286;2023-09-12T04:37:01;100580.78;;;19.73;75.34
40612;BME280;26317;44.894;20.286;2023-09-12T04:39:35;100589.06;;;19.77;75.57
40612;BME280;26317;44.894;20.286;2023-09-12T04:42:07;100573.06;;;19.75;75.61
40612;BME280;26317;44.894;20.286;2023-09-12T04:44:41;100574.22;;;19.74;75.49
40612;BME280;26317;44.894;20.286;2023-09-12T04:47:12;100574.06;;;19.70;75.47
40612;BME280;26317;44.894;20.286;2023-09-12T04:49:43;100579.19;;;19.72;75.80
40612;BME280;26317;44.894;20.286;2023-09-12T04:52:13;100577.03;;;19.57;76.34
40612;BME280;26317;44.894;20.286;2023-09-12T04:54:44;100576.56;;;19.55;76.68
40612;BME280;26317;44.894;20.286;2023-09-12T04:57:15;100572.91;;;19.51;76.75
40612;BME280;26317;44.894;20.286;2023-09-12T04:59:48;100574.81;;;19.50;77.00
40612;BME280;26317;44.894;20.286;2023-09-12T05:02:18;100579.47;;;19.50;76.94
40612;BME280;26317;44.894;20.286;2023-09-12T05:04:48;100589.38;;;19.54;77.11
40612;BME280;26317;44.894;20.286;2023-09-12T05:07:19;100581.69;;;19.56;77.34
40612;BME280;26317;44.894;20.286;2023-09-12T05:09:50;100585.03;;;19.62;76.76
40612;BME280;26317;44.894;20.286;2023-09-12T05:12:21;100565.22;;;19.53;76.97
40612;BME280;26317;44.894;20.286;2023-09-12T05:14:54;100585.28;;;19.69;77.05
40612;BME280;26317;44.894;20.286;2023-09-12T05:17:24;100585.44;;;19.72;76.74
40612;BME280;26317;44.894;20.286;2023-09-12T05:19:55;100579.78;;;19.78;76.34
40612;BME280;26317;44.894;20.286;2023-09-12T05:22:26;100571.63;;;19.78;76.28
40612;BME280;26317;44.894;20.286;2023-09-12T05:24:56;100584.03;;;19.87;76.32
40612;BME280;26317;44.894;20.286;2023-09-12T05:27:27;100582.72;;;19.93;76.03
40612;BME280;26317;44.894;20.286;2023-09-12T05:30:05;100581.25;;;19.96;75.68
40612;BME280;26317;44.894;20.286;2023-09-12T05:32:41;100579.81;;;19.98;76.01
40612;BME280;26317;44.894;20.286;2023-09-12T05:35:12;100591.56;;;20.11;75.72
40612;BME280;26317;44.894;20.286;2023-09-12T05:37:50;100586.84;;;20.20;75.28
40612;BME280;26317;44.894;20.286;2023-09-12T05:40:21;100590.44;;;20.33;74.85
40612;BME280;26317;44.894;20.286;2023-09-12T05:42:54;100590.44;;;20.33;74.71
40612;BME280;26317;44.894;20.286;2023-09-12T05:45:28;100588.41;;;20.42;74.47
40612;BME280;26317;44.894;20.286;2023-09-12T05:48:00;100583.69;;;20.51;73.67
40612;BME280;26317;44.894;20.286;2023-09-12T05:50:33;100585.00;;;20.65;73.27
40612;BME280;26317;44.894;20.286;2023-09-12T05:53:05;100587.16;;;20.72;72.48
40612;BME280;26317;44.894;20.286;2023-09-12T05:55:37;100589.78;;;20.81;71.71
40612;BME280;26317;44.894;20.286;2023-09-12T05:58:19;100590.16;;;20.91;71.86
40612;BME280;26317;44.894;20.286;2023-09-12T06:00:52;100591.53;;;20.97;71.42
40612;BME280;26317;44.894;20.286;2023-09-12T06:03:22;100592.00;;;20.99;70.86
40612;BME280;26317;44.894;20.286;2023-09-12T06:05:53;100591.53;;;21.09;70.26
40612;BME280;26317;44.894;20.286;2023-09-12T06:08:24;100594.28;;;21.22;70.00
40612;BME280;26317;44.894;20.286;2023-09-12T06:10:54;100593.84;;;21.32;69.62
40612;BME280;26317;44.894;20.286;2023-09-12T06:13:25;100594.97;;;21.43;68.80
40612;BME280;26317;44.894;20.286;2023-09-12T06:16:20;100593.41;;;21.54;68.50
40612;BME280;26317;44.894;20.286;2023-09-12T06:18:58;100596.34;;;21.61;67.78
40612;BME280;26317;44.894;20.286;2023-09-12T06:21:28;100593.81;;;21.68;67.35
40612;BME280;26317;44.894;20.286;2023-09-12T06:24:09;100593.69;;;21.77;67.52
40612;BME280;26317;44.894;20.286;2023-09-12T06:26:40;100595.41;;;21.81;66.64
40612;BME280;26317;44.894;20.286;2023-09-12T06:29:11;100594.94;;;21.91;66.21
40612;BME280;26317;44.894;20.286;2023-09-12T06:31:44;100596.78;;;21.99;66.63
40612;BME280;26317;44.894;20.286;2023-09-12T06:34:14;100598.56;;;22.08;66.09
40612;BME280;26317;44.894;20.286;2023-09-12T06:36:44;100596.03;;;22.15;65.66
40612;BME280;26317;44.894;20.286;2023-09-12T06:39:16;100603.84;;;22.28;64.87
40612;BME280;26317;44.894;20.286;2023-09-12T06:41:51;100601.84;;;22.41;64.58
40612;BME280;26317;44.894;20.286;2023-09-12T06:44:25;100599.41;;;22.52;64.30
40612;BME280;26317;44.894;20.286;2023-09-12T06:46:58;100601.56;;;22.58;65.25
40612;BME280;26317;44.894;20.286;2023-09-12T06:49:31;100601.84;;;22.69;64.44
40612;BME280;26317;44.894;20.286;2023-09-12T06:52:06;100601.69;;;22.77;64.62
40612;BME280;26317;44.894;20.286;2023-09-12T06:54:39;100604.59;;;22.84;63.68
40612;BME280;26317;44.894;20.286;2023-09-12T06:57:10;100607.25;;;22.97;63.91
40612;BME280;26317;44.894;20.286;2023-09-12T06:59:41;100608.59;;;23.03;63.58
40612;BME280;26317;44.894;20.286;2023-09-12T07:02:20;100605.31;;;23.13;63.07
40612;BME280;26317;44.894;20.286;2023-09-12T07:04:51;100606.66;;;23.19;62.82
40612;BME280;26317;44.894;20.286;2023-09-12T07:07:21;100605.69;;;23.27;62.81
40612;BME280;26317;44.894;20.286;2023-09-12T07:09:52;100605.84;;;23.34;62.37
40612;BME280;26317;44.894;20.286;2023-09-12T07:12:42;100597.63;;;23.34;61.85
40612;BME280;26317;44.894;20.286;2023-09-12T07:15:15;100611.94;;;23.59;61.26
40612;BME280;26317;44.894;20.286;2023-09-12T07:17:51;100604.19;;;23.61;60.55
40612;BME280;26317;44.894;20.286;2023-09-12T07:20:36;100607.59;;;23.73;60.00
40612;BME280;26317;44.894;20.286;2023-09-12T07:23:16;100599.72;;;23.72;60.85
40612;BME280;26317;44.894;20.286;2023-09-12T07:25:46;100616.16;;;23.88;59.82
40612;BME280;26317;44.894;20.286;2023-09-12T07:28:27;100618.03;;;24.03;58.21
40612;BME280;26317;44.894;20.286;2023-09-12T07:30:57;100606.06;;;24.11;58.00
40612;BME280;26317;44.894;20.286;2023-09-12T07:33:46;100614.19;;;24.23;57.42
40612;BME280;26317;44.894;20.286;2023-09-12T07:36:23;100615.91;;;24.31;56.62
40612;BME280;26317;44.894;20.286;2023-09-12T07:38:59;100613.00;;;24.43;56.75
40612;BME280;26317;44.894;20.286;2023-09-12T07:41:35;100611.72;;;24.56;55.58
40612;BME280;26317;44.894;20.286;2023-09-12T07:44:12;100602.16;;;24.69;56.09
40612;BME280;26317;44.894;20.286;2023-09-12T07:46:46;100608.88;;;24.72;55.96
40612;BME280;26317;44.894;20.286;2023-09-12T07:49:24;100613.84;;;24.86;54.63
40612;BME280;26317;44.894;20.286;2023-09-12T07:52:00;100615.63;;;24.97;54.31
40612;BME280;26317;44.894;20.286;2023-09-12T07:54:31;100597.22;;;24.98;53.31
40612;BME280;26317;44.894;20.286;2023-09-12T07:57:04;100609.00;;;25.21;53.16
40612;BME280;26317;44.894;20.286;2023-09-12T07:59:34;100613.03;;;25.31;52.46
40612;BME280;26317;44.894;20.286;2023-09-12T08:02:05;100613.53;;;25.36;52.60
40612;BME280;26317;44.894;20.286;2023-09-12T08:04:40;100613.34;;;25.48;52.02
40612;BME280;26317;44.894;20.286;2023-09-12T08:07:13;100612.75;;;25.58;51.83
40612;BME280;26317;44.894;20.286;2023-09-12T08:09:52;100608.16;;;25.66;50.53
40612;BME280;26317;44.894;20.286;2023-09-12T08:12:27;100586.97;;;25.67;51.49
40612;BME280;26317;44.894;20.286;2023-09-12T08:14:58;100599.09;;;25.92;50.86
40612;BME280;26317;44.894;20.286;2023-09-12T08:17:30;100600.75;;;26.00;49.91
40612;BME280;26317;44.894;20.286;2023-09-12T08:20:04;100592.59;;;26.07;50.21
40612;BME280;26317;44.894;20.286;2023-09-12T08:22:37;100593.47;;;26.15;49.69
40612;BME280;26317;44.894;20.286;2023-09-12T08:25:10;100603.81;;;26.21;49.43
40612;BME280;26317;44.894;20.286;2023-09-12T08:27:44;100600.88;;;26.40;48.75
40612;BME280;26317;44.894;20.286;2023-09-12T08:30:18;100597.38;;;26.43;47.56
40612;BME280;26317;44.894;20.286;2023-09-12T08:32:53;100603.81;;;26.54;48.36
40612;BME280;26317;44.894;20.286;2023-09-12T08:35:26;100603.88;;;26.62;47.16
40612;BME280;26317;44.894;20.286;2023-09-12T08:37:56;100599.22;;;26.69;47.93
40612;BME280;26317;44.894;20.286;2023-09-12T08:40:30;100600.13;;;26.80;47.62
40612;BME280;26317;44.894;20.286;2023-09-12T08:43:02;100599.91;;;26.92;47.03
40612;BME280;26317;44.894;20.286;2023-09-12T08:45:36;100593.66;;;26.99;48.26
40612;BME280;26317;44.894;20.286;2023-09-12T08:48:08;100603.22;;;27.12;46.87
40612;BME280;26317;44.894;20.286;2023-09-12T08:50:42;100596.94;;;27.15;46.99
40612;BME280;26317;44.894;20.286;2023-09-12T08:53:14;100584.00;;;27.23;46.65
40612;BME280;26317;44.894;20.286;2023-09-12T08:55:54;100581.34;;;27.33;45.94
40612;BME280;26317;44.894;20.286;2023-09-12T08:58:28;100587.31;;;27.42;46.24
40612;BME280;26317;44.894;20.286;2023-09-12T09:01:10;100583.06;;;27.52;45.50
40612;BME280;26317;44.894;20.286;2023-09-12T09:03:42;100576.81;;;27.59;45.53
40612;BME280;26317;44.894;20.286;2023-09-12T09:06:22;100572.53;;;27.68;44.26
40612;BME280;26317;44.894;20.286;2023-09-12T09:08:54;100578.91;;;27.79;44.52
40612;BME280;26317;44.894;20.286;2023-09-12T09:11:26;100574.59;;;27.89;44.61
40612;BME280;26317;44.894;20.286;2023-09-12T09:13:58;100575.03;;;27.98;42.90
40612;BME280;26317;44.894;20.286;2023-09-12T09:16:32;100567.56;;;28.02;43.80
40612;BME280;26317;44.894;20.286;2023-09-12T09:19:08;100582.25;;;28.17;43.52
40612;BME280;26317;44.894;20.286;2023-09-12T09:21:46;100577.56;;;28.24;43.25
40612;BME280;26317;44.894;20.286;2023-09-12T09:24:17;100577.19;;;28.37;42.75
40612;BME280;26317;44.894;20.286;2023-09-12T09:26:51;100563.38;;;28.33;42.06
40612;BME280;26317;44.894;20.286;2023-09-12T09:29:27;100567.75;;;28.48;41.30
40612;BME280;26317;44.894;20.286;2023-09-12T09:32:03;100571.72;;;28.58;41.56
40612;BME280;26317;44.894;20.286;2023-09-12T09:34:52;100569.75;;;28.62;41.29
40612;BME280;26317;44.894;20.286;2023-09-12T09:37:26;100560.34;;;28.70;41.48
40612;BME280;26317;44.894;20.286;2023-09-12T09:39:58;100569.03;;;28.75;40.85
40612;BME280;26317;44.894;20.286;2023-09-12T09:42:32;100565.88;;;28.84;40.63
40612;BME280;26317;44.894;20.286;2023-09-12T09:45:04;100567.47;;;28.92;40.94
40612;BME280;26317;44.894;20.286;2023-09-12T09:47:36;100558.00;;;29.00;39.54
40612;BME280;26317;44.894;20.286;2023-09-12T09:50:14;100562.72;;;29.10;39.66
40612;BME280;26317;44.894;20.286;2023-09-12T09:52:53;100558.38;;;29.20;39.58
40612;BME280;26317;44.894;20.286;2023-09-12T09:55:25;100563.88;;;29.27;39.37
40612;BME280;26317;44.894;20.286;2023-09-12T09:57:56;100556.78;;;29.40;37.50
40612;BME280;26317;44.894;20.286;2023-09-12T10:00:29;100550.06;;;29.48;37.06
40612;BME280;26317;44.894;20.286;2023-09-12T10:03:02;100557.94;;;29.57;35.77
40612;BME280;26317;44.894;20.286;2023-09-12T10:05:37;100558.31;;;29.66;36.72
40612;BME280;26317;44.894;20.286;2023-09-12T10:08:12;100554.31;;;29.78;37.46
40612;BME280;26317;44.894;20.286;2023-09-12T10:10:45;100549.19;;;29.80;34.99
40612;BME280;26317;44.894;20.286;2023-09-12T10:13:19;100556.28;;;29.91;34.05
40612;BME280;26317;44.894;20.286;2023-09-12T10:15:55;100542.81;;;30.00;34.57
40612;BME280;26317;44.894;20.286;2023-09-12T10:18:29;100549.88;;;30.08;35.60
40612;BME280;26317;44.894;20.286;2023-09-12T10:21:10;100540.41;;;30.09;35.42
40612;BME280;26317;44.894;20.286;2023-09-12T10:23:48;100545.09;;;30.20;35.56
40612;BME280;26317;44.894;20.286;2023-09-12T10:26:22;100548.59;;;30.31;35.14
40612;BME280;26317;44.894;20.286;2023-09-12T10:28:55;100545.78;;;30.38;34.76
40612;BME280;26317;44.894;20.286;2023-09-12T10:31:26;100546.53;;;30.42;34.59
40612;BME280;26317;44.894;20.286;2023-09-12T10:33:58;100548.13;;;30.46;35.00
40612;BME280;26317;44.894;20.286;2023-09-12T10:36:30;100544.94;;;30.48;33.28
40612;BME280;26317;44.894;20.286;2023-09-12T10:39:06;100540.94;;;30.56;33.52
40612;BME280;26317;44.894;20.286;2023-09-12T10:41:39;100546.00;;;30.68;33.62
40612;BME280;26317;44.894;20.286;2023-09-12T10:44:11;100537.25;;;30.77;33.50
40612;BME280;26317;44.894;20.286;2023-09-12T10:46:46;100540.75;;;30.84;33.51
40612;BME280;26317;44.894;20.286;2023-09-12T10:49:19;100539.91;;;30.87;33.68
40612;BME280;26317;44.894;20.286;2023-09-12T10:51:58;100535.06;;;31.02;33.47
40612;BME280;26317;44.894;20.286;2023-09-12T10:54:39;100527.53;;;31.02;33.73
40612;BME280;26317;44.894;20.286;2023-09-12T10:57:15;100529.34;;;31.20;32.44
40612;BME280;26317;44.894;20.286;2023-09-12T11:00:10;100522.19;;;31.26;31.72
40612;BME280;26317;44.894;20.286;2023-09-12T11:02:43;100527.59;;;31.36;31.85
40612;BME280;26317;44.894;20.286;2023-09-12T11:05:36;100522.75;;;31.44;32.08
40612;BME280;26317;44.894;20.286;2023-09-12T11:08:11;100522.69;;;31.51;32.40
40612;BME280;26317;44.894;20.286;2023-09-12T11:11:19;100528.19;;;31.58;26.72
40612;BME280;26317;44.894;20.286;2023-09-12T11:14:03;100526.06;;;31.69;25.29
40612;BME280;26317;44.894;20.286;2023-09-12T11:16:34;100529.56;;;31.77;26.13
40612;BME280;26317;44.894;20.286;2023-09-12T11:19:15;100520.72;;;31.85;27.76
40612;BME280;26317;44.894;20.286;2023-09-12T11:21:47;100523.72;;;31.98;26.21
40612;BME280;26317;44.894;20.286;2023-09-12T11:24:19;100516.47;;;32.08;24.63
40612;BME280;26317;44.894;20.286;2023-09-12T11:27:02;100515.63;;;32.14;23.83
40612;BME280;26317;44.894;20.286;2023-09-12T11:29:36;100514.63;;;32.28;24.82
40612;BME280;26317;44.894;20.286;2023-09-12T11:32:09;100510.91;;;32.38;25.01
40612;BME280;26317;44.894;20.286;2023-09-12T11:34:43;100508.81;;;32.46;24.20
40612;BME280;26317;44.894;20.286;2023-09-12T11:37:22;100513.47;;;32.52;24.38
40612;BME280;26317;44.894;20.286;2023-09-12T11:39:57;100509.94;;;32.48;24.79
40612;BME280;26317;44.894;20.286;2023-09-12T11:42:31;100514.63;;;32.55;27.33
40612;BME280;26317;44.894;20.286;2023-09-12T11:45:08;100505.31;;;32.68;25.53
40612;BME280;26317;44.894;20.286;2023-09-12T11:47:40;100506.78;;;32.76;25.54
40612;BME280;26317;44.894;20.286;2023-09-12T11:50:26;100501.56;;;32.78;27.41
40612;BME280;26317;44.894;20.286;2023-09-12T11:53:03;100496.63;;;32.90;26.11
40612;BME280;26317;44.894;20.286;2023-09-12T11:55:43;100494.06;;;32.99;26.40
40612;BME280;26317;44.894;20.286;2023-09-12T11:58:21;100488.72;;;33.08;26.33
40612;BME280;26317;44.894;20.286;2023-09-12T12:00:53;100485.47;;;33.13;26.94
40612;BME280;26317;44.894;20.286;2023-09-12T12:03:25;100487.06;;;33.14;25.80
40612;BME280;26317;44.894;20.286;2023-09-12T12:05:57;100490.91;;;33.20;26.18
40612;BME280;26317;44.894;20.286;2023-09-12T12:11:09;100482.38;;;33.31;26.90
40612;BME280;26317;44.894;20.286;2023-09-12T12:13:42;100475.53;;;33.35;27.50
40612;BME280;26317;44.894;20.286;2023-09-12T12:16:17;100470.69;;;33.39;27.00
40612;BME280;26317;44.894;20.286;2023-09-12T12:18:49;100469.69;;;33.49;27.45
40612;BME280;26317;44.894;20.286;2023-09-12T12:21:23;100462.75;;;33.57;27.56
40612;BME280;26317;44.894;20.286;2023-09-12T12:23:59;100470.97;;;33.64;25.81
40612;BME280;26317;44.894;20.286;2023-09-12T12:26:37;100457.81;;;33.68;25.61
40612;BME280;26317;44.894;20.286;2023-09-12T12:29:22;100460.19;;;33.86;25.98
40612;BME280;26317;44.894;20.286;2023-09-12T12:32:01;100461.66;;;33.91;26.34
40612;BME280;26317;44.894;20.286;2023-09-12T12:34:48;100454.31;;;34.00;25.99
40612;BME280;26317;44.894;20.286;2023-09-12T12:37:43;100446.47;;;34.11;26.35
40612;BME280;26317;44.894;20.286;2023-09-12T12:40:37;100444.47;;;34.12;27.14
40612;BME280;26317;44.894;20.286;2023-09-12T12:43:18;100444.38;;;34.19;26.62
40612;BME280;26317;44.894;20.286;2023-09-12T12:46:01;100444.63;;;34.25;26.19
40612;BME280;26317;44.894;20.286;2023-09-12T12:48:35;100448.97;;;34.42;25.70
40612;BME280;26317;44.894;20.286;2023-09-12T12:51:16;100440.53;;;34.45;25.83
40612;BME280;26317;44.894;20.286;2023-09-12T12:53:54;100455.50;;;34.51;25.56
40612;BME280;26317;44.894;20.286;2023-09-12T12:56:28;100446.19;;;34.58;25.14
40612;BME280;26317;44.894;20.286;2023-09-12T12:59:02;100437.03;;;34.57;25.33
40612;BME280;26317;44.894;20.286;2023-09-12T13:01:44;100446.88;;;34.62;25.76
40612;BME280;26317;44.894;20.286;2023-09-12T13:04:18;100443.25;;;34.65;25.39
40612;BME280;26317;44.894;20.286;2023-09-12T13:06:50;100433.03;;;34.75;25.00
40612;BME280;26317;44.894;20.286;2023-09-12T13:09:21;100433.19;;;34.84;25.60
40612;BME280;26317;44.894;20.286;2023-09-12T13:11:53;100436.47;;;34.95;25.03
40612;BME280;26317;44.894;20.286;2023-09-12T13:14:24;100435.25;;;34.96;24.77
40612;BME280;26317;44.894;20.286;2023-09-12T13:17:01;100432.63;;;35.05;24.73